Time;durP1;ratioP1;P1;durP2;ratioP2;P2;SDS_P1;SDS_P2;PMS_P1;PMS_P2;Temp;Humidity;BMP_temperature;BMP_pressure;BME280_temperature;BME280_humidity;BME280_pressure;Samples;Min_cycle;Max_cycle;Signal;HPM_P1;HPM_P2
2021/01/30 00:01:51;;;;;;;6.97;4.70;;;3.10;92.40;;;;;;5056893;28;20044;-86
2021/01/30 00:04:18;;;;;;;7.67;6.47;;;3.10;92.60;;;;;;5081091;28;20032;-86
2021/01/30 00:06:52;;;;;;;6.40;5.80;;;3.10;92.60;;;;;;5042749;28;20044;-86
2021/01/30 00:09:20;;;;;;;7.77;6.97;;;3.10;92.70;;;;;;5049877;28;20063;-85
2021/01/30 00:11:53;;;;;;;10.47;8.53;;;3.10;92.60;;;;;;5064077;28;20510;-88
2021/01/30 00:14:29;;;;;;;10.07;9.03;;;3.10;92.50;;;;;;5078590;28;20518;-88
2021/01/30 00:16:56;;;;;;;9.77;8.77;;;3.00;92.60;;;;;;5050622;28;20020;-86
2021/01/30 00:19:22;;;;;;;12.77;10.23;;;3.00;92.70;;;;;;5055733;28;20052;-87
2021/01/30 00:22:01;;;;;;;13.33;9.87;;;3.00;92.60;;;;;;5052110;28;20495;-88
2021/01/30 00:24:29;;;;;;;11.33;10.13;;;3.00;92.60;;;;;;5045857;28;20024;-88
2021/01/30 00:27:00;;;;;;;15.27;12.13;;;2.90;92.70;;;;;;5076590;28;20037;-87
2021/01/30 00:29:29;;;;;;;14.27;12.10;;;2.90;92.90;;;;;;5079484;28;20052;-88
2021/01/30 00:31:57;;;;;;;15.80;13.07;;;2.90;93.30;;;;;;5060004;28;20067;-86
2021/01/30 00:34:46;;;;;;;15.93;12.77;;;3.00;93.10;;;;;;5060048;28;20411;-87
2021/01/30 00:37:19;;;;;;;15.73;12.27;;;2.90;93.00;;;;;;5059663;28;20066;-88
2021/01/30 00:39:46;;;;;;;;;;;2.90;92.90;;;;;;5061092;28;20525;-85
2021/01/30 00:42:17;;;;;;;15.40;11.63;;;2.80;92.90;;;;;;5061279;28;20363;-85
2021/01/30 00:44:44;;;;;;;14.13;11.57;;;2.80;93.00;;;;;;5052812;28;20414;-86
2021/01/30 00:47:12;;;;;;;15.57;13.00;;;2.80;93.20;;;;;;5036792;28;20040;-85
2021/01/30 00:49:41;;;;;;;17.53;14.40;;;2.80;93.10;;;;;;5073410;28;20502;-85
2021/01/30 00:52:08;;;;;;;16.87;13.30;;;2.80;93.00;;;;;;5040654;28;20041;-85
2021/01/30 00:54:36;;;;;;;16.63;13.93;;;2.80;92.70;;;;;;5041802;28;20380;-84
2021/01/30 00:57:03;;;;;;;16.30;13.67;;;2.70;92.90;;;;;;5050489;28;20043;-85
2021/01/30 00:59:29;;;;;;;18.57;16.03;;;2.80;93.10;;;;;;5035103;28;20045;-84
2021/01/30 01:01:56;;;;;;;21.00;15.40;;;2.70;93.00;;;;;;5062580;28;20368;-84
2021/01/30 01:04:32;;;;;;;22.80;18.23;;;2.70;93.10;;;;;;5063320;28;20032;-84
2021/01/30 01:06:59;;;;;;;24.33;20.30;;;2.70;93.10;;;;;;5048072;28;20033;-86
2021/01/30 01:09:25;;;;;;;25.17;20.87;;;2.70;92.90;;;;;;5048092;28;20040;-83
2021/01/30 01:11:52;;;;;;;23.87;19.50;;;2.60;92.80;;;;;;5035920;28;20055;-84
2021/01/30 01:14:23;;;;;;;24.90;20.00;;;2.60;92.90;;;;;;5084049;28;20048;-85
2021/01/30 01:16:53;;;;;;;25.73;19.30;;;2.50;92.90;;;;;;5043591;28;20467;-85
2021/01/30 01:19:20;;;;;;;23.10;18.50;;;2.40;93.00;;;;;;5046419;28;20127;-85
2021/01/30 01:21:51;;;;;;;24.20;19.47;;;2.40;92.90;;;;;;5067188;28;20039;-88
2021/01/30 01:24:20;;;;;;;23.27;19.23;;;2.30;93.00;;;;;;5078627;28;20498;-86
2021/01/30 01:26:48;;;;;;;20.87;16.47;;;2.30;93.10;;;;;;5041347;28;20032;-86
2021/01/30 01:29:17;;;;;;;24.93;19.63;;;2.30;93.10;;;;;;5044706;28;20509;-86
2021/01/30 01:31:50;;;;;;;31.17;23.60;;;2.30;93.20;;;;;;5054960;28;20692;-86
2021/01/30 01:34:17;;;;;;;24.40;20.50;;;2.30;92.90;;;;;;5084709;28;20047;-86
2021/01/30 01:36:51;;;;;;;23.77;19.27;;;2.20;92.90;;;;;;5047184;28;20039;-86
2021/01/30 01:39:17;;;;;;;20.50;17.83;;;2.20;92.90;;;;;;5083155;28;20060;-86
2021/01/30 01:41:44;;;;;;;18.60;15.73;;;2.20;93.00;;;;;;5046975;28;20059;-86
2021/01/30 01:44:10;;;;;;;19.40;17.30;;;2.10;92.90;;;;;;5053614;28;20044;-86
2021/01/30 01:46:39;;;;;;;20.00;17.37;;;2.10;92.60;;;;;;5045428;28;20028;-85
2021/01/30 01:49:15;;;;;;;19.00;16.07;;;2.00;92.60;;;;;;5074597;28;20039;-86
2021/01/30 01:51:46;;;;;;;18.57;16.33;;;2.00;92.80;;;;;;5075446;28;20045;-86
2021/01/30 01:54:17;;;;;;;17.57;14.07;;;2.00;92.60;;;;;;5064990;28;20040;-86
2021/01/30 01:56:45;;;;;;;15.70;13.93;;;2.00;92.80;;;;;;5048925;28;20486;-86
2021/01/30 01:59:15;;;;;;;14.47;12.97;;;2.00;92.50;;;;;;5039922;28;20486;-86
2021/01/30 02:01:42;;;;;;;15.37;12.77;;;2.00;92.30;;;;;;5057951;28;20476;-86
2021/01/30 02:04:11;;;;;;;13.80;12.40;;;1.90;91.90;;;;;;5055368;28;20049;-86
2021/01/30 02:06:43;;;;;;;15.10;12.63;;;1.90;92.00;;;;;;5038948;28;20780;-86
2021/01/30 02:09:14;;;;;;;13.85;11.82;;;1.90;92.30;;;;;;5074197;28;20081;-85
2021/01/30 02:11:41;;;;;;;11.27;9.87;;;1.90;92.20;;;;;;5084382;28;20495;-86
2021/01/30 02:14:09;;;;;;;14.50;11.37;;;2.00;92.40;;;;;;5039090;28;20048;-85
2021/01/30 02:16:49;;;;;;;14.27;12.37;;;2.00;92.20;;;;;;5074093;28;20483;-86
2021/01/30 02:19:54;;;;;;;13.60;12.20;;;2.00;92.00;;;;;;5041145;28;20053;-86
2021/01/30 02:22:32;;;;;;;13.33;11.87;;;1.90;91.80;;;;;;5055904;28;20036;-86
2021/01/30 02:25:43;;;;;;;13.87;11.43;;;1.90;92.00;;;;;;5054949;28;20036;-86
2021/01/30 02:28:22;;;;;;;11.47;10.27;;;1.90;92.10;;;;;;5057711;28;20036;-86
2021/01/30 02:31:15;;;;;;;13.43;11.57;;;1.90;91.90;;;;;;5060239;28;20039;-86
2021/01/30 02:34:19;;;;;;;13.15;11.32;;;1.90;91.80;;;;;;5043310;28;20499;-86
2021/01/30 02:37:05;;;;;;;12.60;10.67;;;1.90;91.50;;;;;;5074864;28;20041;-86
2021/01/30 02:39:39;;;;;;;13.23;11.43;;;1.80;91.40;;;;;;5042225;28;20036;-85
2021/01/30 02:42:24;;;;;;;13.13;10.27;;;1.80;91.70;;;;;;5060912;28;20039;-85
2021/01/30 02:44:59;;;;;;;13.83;11.53;;;1.70;91.80;;;;;;5067054;28;20027;-85
2021/01/30 02:47:31;;;;;;;10.23;8.93;;;1.80;92.00;;;;;;5064696;28;20032;-86
2021/01/30 02:50:14;;;;;;;12.00;10.32;;;1.80;92.10;;;;;;5074866;28;20051;-85
2021/01/30 02:52:43;;;;;;;11.23;10.13;;;1.90;92.10;;;;;;5049999;28;20035;-88
2021/01/30 02:55:15;;;;;;;13.03;11.43;;;1.90;92.30;;;;;;5040787;28;20043;-88
2021/01/30 02:57:43;;;;;;;14.93;10.48;;;1.90;92.20;;;;;;5085637;28;20048;-87
2021/01/30 03:00:14;;;;;;;13.23;10.70;;;1.90;92.10;;;;;;5056579;28;20040;-87
2021/01/30 03:02:41;;;;;;;11.77;10.13;;;1.90;92.10;;;;;;5064193;28;20035;-87
2021/01/30 03:05:10;;;;;;;12.27;10.03;;;1.90;91.80;;;;;;5084424;28;20375;-87
2021/01/30 03:07:40;;;;;;;12.20;10.43;;;1.90;91.40;;;;;;5055106;28;20028;-86
2021/01/30 03:10:26;;;;;;;9.73;8.70;;;1.80;91.40;;;;;;5067839;28;20047;-87
2021/01/30 03:13:40;;;;;;;10.13;7.60;;;1.80;91.30;;;;;;5060109;28;20403;-87
2021/01/30 03:16:14;;;;;;;9.43;8.43;;;1.70;91.10;;;;;;5037809;28;20045;-87
2021/01/30 03:18:50;;;;;;;8.67;7.73;;;1.70;91.20;;;;;;5031475;28;20044;-87
2021/01/30 03:21:18;;;;;;;9.30;8.33;;;1.70;91.20;;;;;;5058219;28;20372;-87
2021/01/30 03:23:44;;;;;;;8.60;7.70;;;1.70;91.00;;;;;;5046601;28;20045;-88
2021/01/30 03:26:16;;;;;;;8.83;7.93;;;1.60;91.10;;;;;;5057520;28;20044;-88
2021/01/30 03:28:45;;;;;;;8.57;7.27;;;1.60;91.00;;;;;;5054610;28;20111;-87
2021/01/30 03:31:11;;;;;;;10.57;7.47;;;1.60;91.20;;;;;;5065544;28;20032;-87
2021/01/30 03:33:38;;;;;;;10.93;8.73;;;1.60;91.10;;;;;;5041845;28;20039;-86
2021/01/30 03:36:05;;;;;;;10.90;8.10;;;1.60;91.20;;;;;;5054889;28;20025;-85
2021/01/30 03:38:33;;;;;;;10.67;9.53;;;1.60;91.20;;;;;;5086084;28;20052;-87
2021/01/30 03:41:00;;;;;;;10.53;8.37;;;1.60;91.30;;;;;;5022961;28;20036;-86
2021/01/30 03:43:26;;;;;;;9.80;8.43;;;1.60;91.30;;;;;;5070133;28;20040;-85
2021/01/30 03:45:53;;;;;;;9.73;7.50;;;1.60;91.40;;;;;;5053644;28;20032;-86
2021/01/30 03:48:20;;;;;;;9.77;8.27;;;1.60;91.40;;;;;;5023165;28;20597;-86
2021/01/30 03:50:46;;;;;;;9.27;7.17;;;1.60;91.20;;;;;;5049030;28;20047;-86
2021/01/30 03:53:13;;;;;;;10.03;7.43;;;1.60;91.30;;;;;;5062465;28;20414;-86
2021/01/30 03:55:41;;;;;;;8.57;6.50;;;1.50;91.20;;;;;;5042203;28;20367;-86
2021/01/30 03:58:08;;;;;;;8.83;6.93;;;1.50;91.20;;;;;;5033923;28;20040;-87
2021/01/30 04:00:36;;;;;;;9.00;6.37;;;1.50;91.10;;;;;;5061109;28;20032;-88
2021/01/30 04:03:03;;;;;;;10.57;7.70;;;1.50;91.30;;;;;;5073260;28;20040;-87
2021/01/30 04:05:30;;;;;;;7.30;6.20;;;1.50;91.10;;;;;;5048869;28;20501;-93
2021/01/30 04:07:59;;;;;;;7.20;6.23;;;1.50;91.20;;;;;;5049689;28;20024;-86
2021/01/30 04:10:37;;;;;;;7.53;6.30;;;1.50;91.30;;;;;;5070225;28;20032;-88
2021/01/30 04:13:07;;;;;;;10.03;7.53;;;1.50;91.20;;;;;;5065532;28;20036;-87
2021/01/30 04:15:38;;;;;;;6.93;6.23;;;1.50;91.00;;;;;;5056727;28;20031;-89
2021/01/30 04:18:05;;;;;;;8.10;6.23;;;1.50;91.00;;;;;;5053548;28;20040;-87
2021/01/30 04:20:32;;;;;;;10.30;8.03;;;1.50;90.90;;;;;;5075614;28;20514;-88
2021/01/30 04:22:59;;;;;;;9.43;5.97;;;1.50;90.80;;;;;;5070311;28;20040;-89
2021/01/30 04:25:26;;;;;;;6.00;5.20;;;1.50;90.80;;;;;;5067772;28;20502;-88
2021/01/30 04:27:53;;;;;;;6.13;5.53;;;1.40;90.40;;;;;;5051277;28;20420;-87
2021/01/30 04:30:23;;;;;;;6.67;5.40;;;1.40;90.30;;;;;;5047756;28;20040;-87
2021/01/30 04:32:50;;;;;;;4.73;3.97;;;1.30;90.30;;;;;;5053022;28;20032;-88
2021/01/30 04:35:21;;;;;;;4.33;3.93;;;1.20;90.30;;;;;;5071265;28;20036;-87
2021/01/30 04:37:48;;;;;;;5.53;4.23;;;1.20;90.30;;;;;;5054622;28;20037;-88
2021/01/30 04:40:29;;;;;;;20.83;14.23;;;1.10;90.50;;;;;;5078726;28;20040;-88
2021/01/30 04:43:07;;;;;;;5.33;4.10;;;1.00;90.60;;;;;;5055759;28;20039;-84
2021/01/30 04:45:55;;;;;;;4.83;3.60;;;1.00;90.40;;;;;;5077615;28;20044;-85
2021/01/30 04:49:00;;;;;;;3.90;3.10;;;0.90;90.40;;;;;;5067522;28;20039;-86
2021/01/30 04:51:35;;;;;;;4.93;3.80;;;0.90;90.60;;;;;;5055627;28;20042;-87
2021/01/30 04:54:29;;;;;;;5.07;3.27;;;0.80;90.70;;;;;;5055543;28;20032;-86
2021/01/30 04:57:33;;;;;;;4.67;3.83;;;0.80;90.80;;;;;;5069077;28;20038;-87
2021/01/30 05:00:06;;;;;;;5.63;3.87;;;0.80;91.00;;;;;;5064152;28;20483;-86
2021/01/30 05:03:00;;;;;;;4.22;3.80;;;0.80;91.10;;;;;;5082628;28;20036;-85
2021/01/30 05:05:29;;;;;;;3.50;3.17;;;0.70;91.10;;;;;;5064208;28;20482;-86
2021/01/30 05:08:08;;;;;;;4.87;3.97;;;0.70;91.20;;;;;;5041312;28;20032;-86
2021/01/30 05:10:51;;;;;;;4.83;4.13;;;0.70;91.30;;;;;;5065222;28;20043;-86
2021/01/30 05:13:25;;;;;;;5.03;4.03;;;0.60;91.30;;;;;;5045369;28;20471;-86
2021/01/30 05:15:59;;;;;;;5.23;4.17;;;0.60;91.40;;;;;;5065534;28;20035;-86
2021/01/30 05:18:33;;;;;;;5.97;4.43;;;0.60;91.50;;;;;;5047296;28;20039;-87
2021/01/30 05:21:18;;;;;;;3.97;3.53;;;0.60;91.60;;;;;;5075693;28;20032;-85
2021/01/30 05:23:49;;;;;;;5.27;4.53;;;0.50;91.80;;;;;;5081474;28;20043;-86
2021/01/30 05:26:38;;;;;;;9.57;5.53;;;0.50;92.00;;;;;;5049953;28;20036;-85
2021/01/30 05:29:15;;;;;;;4.67;3.57;;;0.50;92.20;;;;;;5079180;28;20047;-85
2021/01/30 05:32:05;;;;;;;7.00;5.87;;;0.60;92.40;;;;;;5067315;28;20036;-86
2021/01/30 05:35:03;;;;;;;5.80;5.20;;;0.60;92.40;;;;;;5075975;28;20043;-86
2021/01/30 05:37:56;;;;;;;6.40;5.53;;;0.70;92.50;;;;;;5076838;28;20044;-86
2021/01/30 05:40:41;;;;;;;7.50;5.35;;;0.80;92.40;;;;;;5056893;28;20044;-85
2021/01/30 05:43:14;;;;;;;7.83;6.37;;;0.90;92.30;;;;;;5059483;28;20032;-85
2021/01/30 05:45:53;;;;;;;7.57;5.55;;;0.90;92.20;;;;;;5062748;28;20387;-86
2021/01/30 05:48:26;;;;;;;5.60;4.60;;;0.90;92.10;;;;;;5071901;28;20039;-83
2021/01/30 05:51:11;;;;;;;12.23;7.43;;;1.00;92.20;;;;;;5065930;28;20036;-87
2021/01/30 05:53:38;;;;;;;8.50;6.20;;;1.00;92.30;;;;;;5048050;28;20430;-84
2021/01/30 05:56:05;;;;;;;7.20;5.63;;;1.10;92.00;;;;;;5047912;28;20031;-86
2021/01/30 05:58:38;;;;;;;7.60;5.77;;;1.10;91.90;;;;;;5060083;28;20025;-86
2021/01/30 06:01:27;;;;;;;6.57;5.83;;;1.10;91.90;;;;;;5044341;28;20028;-86
2021/01/30 06:04:09;;;;;;;6.17;4.90;;;1.00;91.20;;;;;;5047153;28;20066;-85
2021/01/30 06:06:50;;;;;;;6.87;5.70;;;1.00;91.20;;;;;;5060024;28;20352;-84
2021/01/30 06:09:40;;;;;;;7.87;6.30;;;1.00;91.30;;;;;;5083580;28;20028;-85
2021/01/30 06:12:36;;;;;;;6.50;5.37;;;1.00;91.30;;;;;;5065350;28;20032;-85
2021/01/30 06:15:20;;;;;;;6.53;5.27;;;1.00;91.50;;;;;;5049642;28;20510;-86
2021/01/30 06:17:48;;;;;;;6.60;5.53;;;1.00;91.60;;;;;;5069809;28;20028;-85
2021/01/30 06:20:25;;;;;;;7.13;5.50;;;1.00;91.30;;;;;;5047323;28;20045;-86
2021/01/30 06:23:12;;;;;;;7.50;5.87;;;1.10;91.50;;;;;;5051874;28;20024;-86
2021/01/30 06:25:43;;;;;;;7.47;5.87;;;1.10;91.50;;;;;;5068102;28;20059;-86
2021/01/30 06:28:29;;;;;;;7.20;5.63;;;1.10;91.20;;;;;;5057267;28;20036;-85
2021/01/30 06:31:11;;;;;;;5.57;4.77;;;1.10;91.40;;;;;;5055499;28;20039;-85
2021/01/30 06:33:54;;;;;;;7.60;5.70;;;1.10;91.40;;;;;;5082576;28;20043;-88
2021/01/30 06:36:28;;;;;;;7.70;5.70;;;1.20;91.50;;;;;;5071681;28;20036;-85
2021/01/30 06:39:27;;;;;;;7.37;6.10;;;1.20;91.10;;;;;;5066022;28;20036;-85
2021/01/30 06:41:59;;;;;;;6.90;5.43;;;1.20;91.10;;;;;;5062408;28;20472;-85
2021/01/30 06:44:30;;;;;;;6.72;5.32;;;1.20;91.10;;;;;;5068822;28;20036;-84
2021/01/30 06:47:19;;;;;;;6.80;5.60;;;1.20;91.00;;;;;;5063045;28;20119;-85
2021/01/30 06:49:54;;;;;;;6.60;5.47;;;1.20;91.20;;;;;;5077548;28;20063;-85
2021/01/30 06:52:30;;;;;;;7.97;6.40;;;1.20;91.30;;;;;;5046204;28;20067;-85
2021/01/30 06:55:10;;;;;;;6.97;5.80;;;1.20;91.00;;;;;;5046683;28;20063;-85
2021/01/30 06:57:59;;;;;;;6.53;5.53;;;1.20;90.90;;;;;;5051520;28;20037;-86
2021/01/30 07:00:31;;;;;;;7.77;5.73;;;1.20;90.80;;;;;;5063117;28;20040;-85
2021/01/30 07:03:07;;;;;;;;;;;1.10;90.80;;;;;;5060458;28;20103;-84
2021/01/30 07:06:21;;;;;;;6.37;5.17;;;1.10;90.90;;;;;;5037592;28;19908;-84
2021/01/30 07:09:06;;;;;;;6.77;5.50;;;1.10;91.00;;;;;;5050664;28;20051;-85
2021/01/30 07:11:53;;;;;;;6.93;5.27;;;1.10;91.20;;;;;;5039795;28;20407;-85
2021/01/30 07:14:43;;;;;;;7.53;5.80;;;1.20;91.40;;;;;;5061687;28;20040;-83
2021/01/30 07:17:31;;;;;;;7.93;5.87;;;1.20;91.40;;;;;;5062305;28;20037;-86
2021/01/30 07:20:07;;;;;;;7.90;6.97;;;1.20;90.80;;;;;;5048095;28;20365;-87
2021/01/30 07:22:43;;;;;;;6.93;5.30;;;1.20;91.00;;;;;;5047045;28;20043;-86
2021/01/30 07:25:15;;;;;;;6.87;5.70;;;1.20;91.10;;;;;;5065353;28;20036;-87
2021/01/30 07:28:05;;;;;;;7.27;5.50;;;1.10;90.90;;;;;;5066554;28;20024;-85
2021/01/30 07:30:44;;;;;;;7.40;5.82;;;1.10;90.60;;;;;;5051530;28;20495;-86
2021/01/30 07:33:19;;;;;;;8.53;5.63;;;1.10;90.20;;;;;;5067874;28;20028;-87
2021/01/30 07:36:03;;;;;;;8.33;5.77;;;1.00;90.20;;;;;;5084834;28;20040;-86
2021/01/30 07:38:47;;;;;;;8.77;5.27;;;1.00;90.10;;;;;;5050561;28;20020;-88
2021/01/30 07:41:39;;;;;;;6.67;5.23;;;1.00;90.30;;;;;;5049698;28;20043;-86
2021/01/30 07:44:16;;;;;;;7.07;5.30;;;0.90;90.50;;;;;;5075567;28;20036;-86
2021/01/30 07:46:48;;;;;;;6.40;5.03;;;1.00;90.40;;;;;;5050074;28;20039;-86
2021/01/30 07:49:23;;;;;;;8.33;5.80;;;1.00;90.50;;;;;;5064127;28;20466;-86
2021/01/30 07:51:52;;;;;;;8.27;5.80;;;1.00;90.50;;;;;;5055143;28;20033;-86
2021/01/30 07:54:19;;;;;;;8.20;6.07;;;1.00;90.50;;;;;;5059865;28;20036;-87
2021/01/30 07:57:13;;;;;;;8.57;5.67;;;1.00;90.60;;;;;;5020667;28;20051;-86
2021/01/30 07:59:49;;;;;;;8.33;6.20;;;1.10;90.60;;;;;;5085625;28;20052;-88
2021/01/30 08:02:46;;;;;;;7.93;5.57;;;1.10;90.70;;;;;;5063541;28;20055;-85
2021/01/30 08:05:44;;;;;;;9.67;6.20;;;1.10;90.90;;;;;;5043981;28;20043;-87
2021/01/30 08:08:34;;;;;;;7.73;5.70;;;1.10;90.80;;;;;;5050393;28;20053;-88
2021/01/30 08:11:28;;;;;;;7.70;6.20;;;1.10;90.90;;;;;;5047457;28;20538;-88
2021/01/30 08:14:23;;;;;;;8.70;6.27;;;1.10;90.90;;;;;;5053623;28;20051;-88
2021/01/30 08:16:56;;;;;;;7.73;5.97;;;1.10;90.60;;;;;;5047451;28;20485;-88
2021/01/30 08:19:42;;;;;;;7.77;5.50;;;1.10;90.70;;;;;;5050435;28;20056;-86
2021/01/30 08:22:34;;;;;;;8.40;6.17;;;1.20;90.90;;;;;;5059415;28;20040;-87
2021/01/30 08:25:09;;;;;;;9.67;7.13;;;1.20;90.60;;;;;;5055693;28;20492;-88
2021/01/30 08:27:39;;;;;;;8.80;6.63;;;1.20;90.50;;;;;;5053415;28;20467;-88
2021/01/30 08:30:17;;;;;;;9.60;7.00;;;1.20;90.20;;;;;;5055065;28;20028;-87
2021/01/30 08:33:02;;;;;;;9.47;6.43;;;1.30;90.00;;;;;;5057847;28;20368;-86
2021/01/30 08:35:28;;;;;;;7.77;6.13;;;1.20;90.30;;;;;;5066379;28;20398;-87
2021/01/30 08:38:07;;;;;;;8.30;6.43;;;1.30;90.40;;;;;;5051985;28;20028;-87
2021/01/30 08:40:57;;;;;;;11.13;7.63;;;1.30;90.50;;;;;;5049926;28;20055;-86
2021/01/30 08:43:40;;;;;;;9.47;7.13;;;1.30;90.40;;;;;;5067885;28;20032;-87
2021/01/30 08:46:22;;;;;;;9.53;6.53;;;1.40;90.50;;;;;;5066469;28;20407;-88
2021/01/30 08:49:24;;;;;;;8.98;7.07;;;1.40;90.50;;;;;;5072498;28;20020;-87
2021/01/30 08:52:49;;;;;;;10.87;7.90;;;1.40;90.30;;;;;;5066744;28;20036;-91
2021/01/30 08:55:32;;;;;;;9.53;7.43;;;1.40;90.30;;;;;;5058178;28;20387;-84
2021/01/30 08:58:02;;;;;;;8.73;6.72;;;1.50;90.60;;;;;;5085907;28;20037;-90
2021/01/30 09:00:35;;;;;;;9.63;7.43;;;1.50;90.60;;;;;;5070776;28;20040;-88
2021/01/30 09:03:03;;;;;;;;;;;1.60;90.60;;;;;;5066339;28;20032;-88
2021/01/30 09:05:33;;;;;;;10.57;7.27;;;1.60;90.30;;;;;;5053291;28;19927;-88
2021/01/30 09:08:22;;;;;;;9.93;7.83;;;1.60;90.40;;;;;;5070211;28;20044;-83
2021/01/30 09:11:23;;;;;;;10.27;7.37;;;1.50;90.40;;;;;;5057448;28;20031;-85
2021/01/30 09:14:12;;;;;;;9.30;7.70;;;1.60;90.30;;;;;;5052963;28;20033;-87
2021/01/30 09:16:57;;;;;;;8.70;6.47;;;1.60;90.30;;;;;;5072054;28;20376;-81
2021/01/30 09:19:52;;;;;;;9.63;6.83;;;1.70;90.40;;;;;;5061252;28;20052;-84
2021/01/30 09:22:52;;;;;;;10.63;7.97;;;1.70;90.10;;;;;;5037643;28;20483;-86
2021/01/30 09:25:41;;;;;;;11.00;7.50;;;1.70;90.00;;;;;;5063364;28;20043;-86
2021/01/30 09:28:26;;;;;;;8.37;6.40;;;1.70;89.60;;;;;;5034194;28;20037;-87
2021/01/30 09:31:02;;;;;;;9.37;6.27;;;1.70;89.20;;;;;;5032543;28;20035;-88
2021/01/30 09:34:08;;;;;;;9.63;7.17;;;1.70;89.60;;;;;;5056248;28;20044;-86
2021/01/30 09:36:54;;;;;;;10.13;6.47;;;1.80;89.50;;;;;;5035025;28;20747;-86
2021/01/30 09:39:28;;;;;;;8.70;6.50;;;1.80;89.50;;;;;;5026702;28;20041;-85
2021/01/30 09:42:08;;;;;;;8.07;6.37;;;1.80;89.20;;;;;;5051690;28;20057;-87
2021/01/30 09:44:47;;;;;;;9.67;6.80;;;1.90;89.00;;;;;;5033629;28;20036;-86
2021/01/30 09:47:22;;;;;;;10.27;6.97;;;1.90;88.50;;;;;;5056701;28;20200;-85
2021/01/30 09:50:00;;;;;;;10.33;6.43;;;1.90;88.70;;;;;;5037308;28;20515;-85
2021/01/30 09:52:27;;;;;;;8.63;6.60;;;1.90;89.30;;;;;;5066783;28;20047;-86
2021/01/30 09:55:07;;;;;;;8.80;6.43;;;2.00;89.20;;;;;;5059797;28;20499;-86
2021/01/30 09:57:35;;;;;;;8.13;6.43;;;2.10;89.10;;;;;;5072652;28;20055;-86
2021/01/30 10:00:38;;;;;;;8.63;7.30;;;2.10;89.60;;;;;;5051088;28;20309;-86
2021/01/30 10:03:11;;;;;;;7.63;6.45;;;2.20;88.60;;;;;;5080288;28;20066;-86
2021/01/30 10:05:38;;;;;;;9.13;6.70;;;2.10;87.90;;;;;;5062685;28;20447;-88
2021/01/30 10:08:15;;;;;;;10.90;7.87;;;2.20;88.30;;;;;;5052235;28;20068;-87
2021/01/30 10:10:42;;;;;;;9.33;7.17;;;2.30;88.20;;;;;;5064121;28;20486;-86
2021/01/30 10:13:15;;;;;;;9.07;7.33;;;2.20;88.20;;;;;;5054222;28;20045;-86
2021/01/30 10:15:44;;;;;;;7.75;6.22;;;2.20;87.80;;;;;;5049711;28;20048;-86
2021/01/30 10:18:19;;;;;;;8.80;7.23;;;2.20;87.50;;;;;;5065575;28;20032;-87
2021/01/30 10:20:49;;;;;;;8.60;6.90;;;2.10;87.50;;;;;;5061952;28;20048;-86
2021/01/30 10:23:35;;;;;;;7.90;6.50;;;2.10;87.30;;;;;;5050254;28;20028;-85
2021/01/30 10:26:26;;;;;;;8.27;6.60;;;2.10;88.20;;;;;;5063095;28;20474;-85
2021/01/30 10:28:52;;;;;;;10.10;8.17;;;2.20;88.60;;;;;;5089138;28;20036;-85
2021/01/30 10:31:24;;;;;;;9.67;7.93;;;2.20;88.40;;;;;;5069331;28;20039;-89
2021/01/30 10:34:01;;;;;;;9.53;7.23;;;2.30;88.60;;;;;;5079207;28;20040;-84
2021/01/30 10:36:29;;;;;;;10.13;7.17;;;2.30;88.10;;;;;;5064786;28;20043;-84
2021/01/30 10:39:01;;;;;;;12.13;7.70;;;2.40;88.20;;;;;;5073452;28;20048;-87
2021/01/30 10:41:30;;;;;;;9.40;6.43;;;2.50;88.40;;;;;;5062706;28;20039;-83
2021/01/30 10:44:03;;;;;;;10.60;7.87;;;2.50;87.90;;;;;;5046039;28;20029;-85
2021/01/30 10:46:41;;;;;;;9.10;7.70;;;2.60;88.20;;;;;;5080626;28;21079;-84
2021/01/30 10:49:18;;;;;;;8.60;7.03;;;2.70;88.00;;;;;;5074467;28;20032;-80
2021/01/30 10:51:45;;;;;;;7.67;6.10;;;2.60;87.30;;;;;;5073212;28;20063;-82
2021/01/30 10:54:26;;;;;;;7.80;6.83;;;2.70;87.10;;;;;;5082495;28;20382;-82
2021/01/30 10:57:07;;;;;;;8.80;6.63;;;2.70;86.30;;;;;;5065517;28;20051;-83
2021/01/30 11:00:04;;;;;;;9.03;6.47;;;2.80;86.60;;;;;;5061014;28;20043;-82
2021/01/30 11:02:45;;;;;;;8.43;6.03;;;2.90;86.70;;;;;;5081302;28;20056;-85
2021/01/30 11:05:21;;;;;;;7.67;6.87;;;2.90;86.20;;;;;;5081655;28;20039;-86
2021/01/30 11:07:59;;;;;;;9.00;7.23;;;3.00;85.30;;;;;;5052623;28;20040;-82
2021/01/30 11:10:27;;;;;;;8.90;6.40;;;3.00;85.10;;;;;;5076977;28;20048;-89
2021/01/30 11:13:22;;;;;;;10.30;7.10;;;3.00;85.50;;;;;;5082861;28;20063;-87
2021/01/30 11:16:17;;;;;;;9.07;6.63;;;3.10;84.80;;;;;;5057082;28;20518;-85
2021/01/30 11:18:50;;;;;;;7.23;6.17;;;3.10;85.60;;;;;;5077476;28;20510;-86
2021/01/30 11:21:47;;;;;;;8.13;7.27;;;3.10;85.10;;;;;;5069470;28;20067;-84
2021/01/30 11:24:30;;;;;;;10.73;6.70;;;3.00;85.50;;;;;;5086659;28;20051;-86
2021/01/30 11:26:57;;;;;;;8.73;7.28;;;3.10;85.40;;;;;;5051973;28;20039;-85
2021/01/30 11:29:44;;;;;;;7.87;6.83;;;3.10;85.20;;;;;;5047542;28;20041;-85
2021/01/30 11:32:18;;;;;;;9.43;7.33;;;3.10;85.50;;;;;;5063019;28;20055;-86
2021/01/30 11:34:48;;;;;;;8.13;6.00;;;3.20;85.40;;;;;;5067979;28;20050;-81
2021/01/30 11:37:15;;;;;;;8.77;7.77;;;3.20;85.80;;;;;;5077810;28;20051;-81
2021/01/30 11:39:43;;;;;;;10.43;7.80;;;3.30;84.70;;;;;;5064906;28;20032;-82
2021/01/30 11:42:12;;;;;;;9.07;7.83;;;3.20;84.30;;;;;;5062417;28;20476;-88
2021/01/30 11:44:39;;;;;;;9.80;8.00;;;3.20;85.00;;;;;;5075088;28;20032;-86
2021/01/30 11:47:06;;;;;;;10.43;8.17;;;3.30;85.20;;;;;;5044258;28;20032;-88
2021/01/30 11:49:43;;;;;;;9.57;7.53;;;3.40;84.40;;;;;;5078522;28;20060;-83
2021/01/30 11:52:36;;;;;;;11.07;7.22;;;3.40;85.00;;;;;;5046820;28;20414;-83
2021/01/30 11:55:50;;;;;;;16.50;7.43;;;3.50;84.90;;;;;;5045594;28;20403;-85
2021/01/30 11:58:40;;;;;;;7.63;6.10;;;3.50;83.10;;;;;;5055715;28;20539;-85
2021/01/30 12:01:12;;;;;;;8.15;7.03;;;3.50;83.20;;;;;;5040516;28;20036;-85
2021/01/30 12:03:57;;;;;;;10.50;7.47;;;3.50;82.90;;;;;;5049062;28;20428;-85
2021/01/30 12:06:27;;;;;;;7.83;7.00;;;3.50;82.40;;;;;;5026738;28;20399;-84
2021/01/30 12:08:56;;;;;;;8.45;7.05;;;3.50;82.40;;;;;;5030166;28;20124;-85
2021/01/30 12:11:23;;;;;;;8.17;6.70;;;3.40;82.60;;;;;;5044339;28;20395;-86
2021/01/30 12:13:54;;;;;;;7.97;7.10;;;3.40;82.60;;;;;;5060723;28;20180;-89
2021/01/30 12:16:23;;;;;;;9.83;7.83;;;3.40;81.80;;;;;;5042277;28;20084;-86
2021/01/30 12:18:50;;;;;;;8.60;6.80;;;3.40;82.50;;;;;;5061799;28;20048;-84
2021/01/30 12:21:17;;;;;;;10.10;6.90;;;3.30;82.70;;;;;;5041566;28;20036;-84
2021/01/30 12:23:44;;;;;;;10.10;7.30;;;3.40;83.20;;;;;;5065086;28;20047;-86
2021/01/30 12:26:13;;;;;;;8.57;7.17;;;3.30;82.80;;;;;;5051861;28;20047;-84
2021/01/30 12:28:43;;;;;;;10.30;7.60;;;3.40;83.40;;;;;;5081980;28;20044;-85
2021/01/30 12:31:12;;;;;;;9.70;6.70;;;3.40;83.20;;;;;;5066583;28;20031;-85
2021/01/30 12:33:38;;;;;;;8.77;7.57;;;3.40;83.70;;;;;;5082148;28;20497;-86
2021/01/30 12:36:07;;;;;;;8.43;7.00;;;3.40;83.40;;;;;;5067137;28;20111;-87
2021/01/30 12:38:34;;;;;;;7.93;7.13;;;3.40;83.70;;;;;;5074613;28;20040;-88
2021/01/30 12:41:06;;;;;;;8.70;7.00;;;3.40;84.10;;;;;;5053807;28;20048;-86
2021/01/30 12:43:32;;;;;;;11.23;8.00;;;3.40;84.10;;;;;;5093108;28;20040;-84
2021/01/30 12:45:59;;;;;;;11.40;8.50;;;3.40;83.20;;;;;;5087734;28;20043;-85
2021/01/30 12:48:30;;;;;;;13.80;8.73;;;3.30;83.00;;;;;;5084487;28;20040;-90
2021/01/30 12:50:57;;;;;;;9.27;7.93;;;3.30;83.60;;;;;;5046037;28;20029;-91
2021/01/30 12:53:26;;;;;;;10.27;7.77;;;3.40;83.60;;;;;;5053904;28;20047;-87
2021/01/30 12:56:09;;;;;;;8.17;7.00;;;3.40;83.20;;;;;;5063885;28;20040;-91
2021/01/30 12:58:39;;;;;;;8.83;7.73;;;3.40;84.00;;;;;;5052370;28;20040;-89
2021/01/30 13:01:06;;;;;;;8.17;6.50;;;3.40;83.00;;;;;;5050507;28;20502;-89
2021/01/30 13:03:40;;;;;;;9.00;6.57;;;3.40;83.10;;;;;;5051331;28;20044;-89
2021/01/30 13:06:07;;;;;;;7.47;6.40;;;3.50;83.50;;;;;;5052634;28;20528;-90
2021/01/30 13:08:34;;;;;;;8.50;6.97;;;3.60;83.30;;;;;;5042579;28;20036;-90
2021/01/30 13:11:01;;;;;;;8.83;6.70;;;3.60;83.20;;;;;;5056599;28;20036;-90
2021/01/30 13:13:28;;;;;;;10.97;7.13;;;3.60;83.40;;;;;;5071162;28;20040;-88
2021/01/30 13:15:58;;;;;;;9.77;8.20;;;3.70;83.00;;;;;;5051811;28;20033;-90
2021/01/30 13:18:39;;;;;;;7.97;6.67;;;3.60;82.00;;;;;;5065689;28;20488;-89
2021/01/30 13:21:08;;;;;;;10.03;6.70;;;3.50;82.70;;;;;;5052765;28;20047;-88
2021/01/30 13:23:43;;;;;;;8.43;6.53;;;3.50;82.90;;;;;;5084916;28;20036;-89
2021/01/30 13:26:10;;;;;;;8.03;6.17;;;3.50;82.60;;;;;;5047147;28;20036;-87
2021/01/30 13:28:36;;;;;;;7.00;5.93;;;3.40;82.20;;;;;;5065960;28;20040;-87
2021/01/30 13:31:03;;;;;;;11.10;7.20;;;3.40;82.10;;;;;;5034913;28;20044;-88
2021/01/30 13:33:30;;;;;;;7.70;6.20;;;3.30;82.60;;;;;;5068549;28;20055;-88
2021/01/30 13:35:59;;;;;;;8.23;6.70;;;3.30;83.30;;;;;;5047543;28;20028;-87
2021/01/30 13:38:31;;;;;;;9.67;7.57;;;3.30;83.30;;;;;;5032220;28;20043;-86
2021/01/30 13:40:58;;;;;;;9.20;7.03;;;3.30;83.00;;;;;;5047945;28;20425;-85